createdAt,value
2023-03-06T00:00:33.163Z,32.28
2023-03-06T00:03:23.054Z,34.10
2023-03-06T00:06:10.364Z,27.63
2023-03-06T00:08:57.554Z,29.40
2023-03-06T00:11:47.179Z,31.48
2023-03-06T00:14:37.389Z,31.50
2023-03-06T00:17:28.219Z,35.30
2023-03-06T00:20:17.921Z,34.67
2023-03-06T00:23:07.529Z,40.78
2023-03-06T00:25:54.926Z,34.30
2023-03-06T00:28:44.429Z,34.92
2023-03-06T00:31:31.734Z,34.45
2023-03-06T00:34:18.899Z,34.38
2023-03-06T00:37:06.186Z,36.33
2023-03-06T00:39:56.008Z,41.78
2023-03-06T00:42:44.639Z,39.05
2023-03-06T00:45:31.953Z,39.40
2023-03-06T00:48:19.160Z,35.85
2023-03-06T00:51:07.113Z,39.78
2023-03-06T00:53:54.535Z,44.30
2023-03-06T00:56:41.696Z,44.83
2023-03-06T00:59:33.800Z,40.63
2023-03-06T01:02:21.405Z,38.88
2023-03-06T01:05:09.718Z,43.58
2023-03-06T01:07:56.930Z,40.35
2023-03-06T01:10:44.175Z,44.15
2023-03-06T01:13:33.635Z,42.28
2023-03-06T01:16:21.573Z,45.35
2023-03-06T01:19:14.907Z,38.63
2023-03-06T01:22:02.078Z,40.08
2023-03-06T01:24:49.230Z,42.63
2023-03-06T01:27:38.650Z,44.28
2023-03-06T01:30:26.122Z,42.63
2023-03-06T01:33:13.480Z,37.85
2023-03-06T01:36:03.713Z,40.13
2023-03-06T01:38:50.937Z,45.58
2023-03-06T01:41:38.172Z,44.42
2023-03-06T01:44:25.396Z,42.10
2023-03-06T01:47:12.549Z,44.72
2023-03-06T01:50:03.864Z,43.75
2023-03-06T01:52:59.635Z,44.95
2023-03-06T01:55:50.034Z,45.97
2023-03-06T01:58:38.090Z,42.42
2023-03-06T02:01:26.429Z,42.35
2023-03-06T02:04:14.110Z,37.92
2023-03-06T02:07:08.500Z,39.78
2023-03-06T02:09:57.217Z,42.13
2023-03-06T02:12:45.049Z,39.85
2023-03-06T02:15:32.251Z,43.65
2023-03-06T02:18:19.963Z,35.47
2023-03-06T02:21:10.835Z,34.42
2023-03-06T02:24:14.611Z,36.17
2023-03-06T02:27:07.090Z,39.28
2023-03-06T02:29:57.158Z,35.90
2023-03-06T02:32:44.469Z,37.33
2023-03-06T02:35:39.576Z,31.45
2023-03-06T02:38:52.036Z,36.83
2023-03-06T02:41:41.711Z,33.63
2023-03-06T02:44:30.052Z,33.40
2023-03-06T02:47:19.788Z,40.28
2023-03-06T02:50:07.883Z,33.53
2023-03-06T02:52:55.108Z,37.72
2023-03-06T02:55:44.891Z,39.03
2023-03-06T02:58:32.013Z,33.22
2023-03-06T03:01:19.240Z,34.25
2023-03-06T03:04:06.478Z,34.53
2023-03-06T03:06:58.119Z,34.63
2023-03-06T03:09:45.326Z,33.72
2023-03-06T03:12:33.087Z,35.97
2023-03-06T03:15:27.844Z,28.33
2023-03-06T03:18:15.027Z,38.05
2023-03-06T03:21:04.487Z,32.25
2023-03-06T03:23:51.601Z,29.48
2023-03-06T03:26:41.181Z,37.47
2023-03-06T03:29:28.390Z,36.47
2023-03-06T03:32:15.610Z,42.22
2023-03-06T03:35:05.829Z,41.03
2023-03-06T03:37:55.258Z,34.30
2023-03-06T03:40:42.743Z,32.65
2023-03-06T03:43:30.097Z,34.72
2023-03-06T03:46:17.385Z,28.00
2023-03-06T03:49:09.833Z,35.53
2023-03-06T03:52:01.693Z,31.33
2023-03-06T03:54:48.861Z,23.33
2023-03-06T03:57:39.922Z,32.65
2023-03-06T04:00:32.895Z,36.17
2023-03-06T04:03:20.091Z,36.67
2023-03-06T04:06:10.201Z,34.13
2023-03-06T04:08:57.411Z,30.15
2023-03-06T04:11:48.384Z,34.65
2023-03-06T04:14:35.646Z,35.05
2023-03-06T04:17:26.399Z,34.30
2023-03-06T04:20:14.562Z,35.13
2023-03-06T04:23:04.476Z,34.08
2023-03-06T04:25:52.092Z,30.40
2023-03-06T04:28:44.222Z,29.60
2023-03-06T04:31:39.113Z,30.50
2023-03-06T04:34:26.304Z,34.60
2023-03-06T04:37:28.906Z,29.98
2023-03-06T04:40:22.076Z,31.23
2023-03-06T04:43:09.380Z,31.83
2023-03-06T04:45:58.360Z,30.13
2023-03-06T04:48:48.971Z,29.90
2023-03-06T04:51:39.155Z,35.15
2023-03-06T04:54:26.298Z,27.17
2023-03-06T04:57:16.527Z,30.65
2023-03-06T05:00:21.686Z,35.45
2023-03-06T05:03:23.091Z,33.67
2023-03-06T05:06:16.160Z,28.80
2023-03-06T05:09:33.422Z,29.55
2023-03-06T05:12:28.519Z,29.10
2023-03-06T05:15:23.369Z,30.88
2023-03-06T05:18:10.786Z,36.75
2023-03-06T05:21:05.440Z,33.60
2023-03-06T05:23:53.172Z,34.75
2023-03-06T05:26:40.376Z,31.77
2023-03-06T05:29:27.975Z,39.97
2023-03-06T05:32:18.068Z,33.08
2023-03-06T05:35:06.469Z,32.78
2023-03-06T05:37:57.086Z,37.70
2023-03-06T05:40:47.497Z,40.60
2023-03-06T05:43:39.067Z,34.85
2023-03-06T05:46:26.391Z,35.67
2023-03-06T05:49:13.701Z,31.23
2023-03-06T05:52:04.124Z,41.55
2023-03-06T05:54:54.553Z,37.17
2023-03-06T05:57:42.264Z,38.05
2023-03-06T06:00:29.739Z,34.17
2023-03-06T06:03:19.697Z,36.10
2023-03-06T06:06:08.212Z,39.58
2023-03-06T06:08:57.668Z,37.30
2023-03-06T06:11:44.821Z,42.50
2023-03-06T06:14:34.504Z,39.83
2023-03-06T06:17:24.107Z,34.50
2023-03-06T06:20:14.567Z,36.50
2023-03-06T06:23:02.075Z,37.30
2023-03-06T06:25:49.479Z,36.67
2023-03-06T06:28:39.207Z,30.73
2023-03-06T06:31:26.561Z,37.83
2023-03-06T06:53:11.180Z,34.08
2023-03-06T06:56:16.549Z,36.13
2023-03-06T06:59:16.435Z,40.78
2023-03-06T08:22:36.764Z,26.85
2023-03-06T08:25:51.328Z,28.20
2023-03-06T08:28:38.046Z,25.77
2023-03-06T08:31:40.982Z,23.48
2023-03-06T08:34:30.540Z,24.08
2023-03-06T08:37:40.354Z,21.33
2023-03-06T09:21:00.993Z,15.82
2023-03-06T09:32:35.161Z,18.80
2023-03-06T09:44:28.475Z,16.50
2023-03-06T09:51:08.671Z,16.52
2023-03-06T09:54:19.552Z,17.15
2023-03-06T09:59:41.495Z,15.27
2023-03-06T10:01:55.129Z,17.63
2023-03-06T10:12:36.176Z,17.05
2023-03-06T10:15:46.466Z,20.33
2023-03-06T10:19:30.546Z,17.02
2023-03-06T10:23:14.512Z,19.52
2023-03-06T10:26:56.809Z,18.60
2023-03-06T10:30:04.061Z,18.67
2023-03-06T10:33:04.298Z,18.25
2023-03-06T10:40:44.373Z,19.30
2023-03-06T12:01:52.758Z,15.32
2023-03-06T12:05:55.258Z,12.90
2023-03-06T12:09:12.228Z,16.77
2023-03-06T12:12:36.043Z,14.02
2023-03-06T12:15:48.786Z,16.17
2023-03-06T12:18:39.763Z,14.60
2023-03-06T12:21:56.929Z,13.82
2023-03-06T12:25:05.702Z,15.13
2023-03-06T12:28:34.573Z,12.32
2023-03-06T12:31:58.223Z,14.82
2023-03-06T12:42:38.581Z,15.30
2023-03-06T12:46:37.497Z,19.00
2023-03-06T12:50:08.957Z,17.10
2023-03-06T12:56:52.693Z,15.60
2023-03-06T13:00:04.409Z,15.43
2023-03-06T13:03:58.913Z,14.85
2023-03-06T13:10:43.436Z,17.45
2023-03-06T13:18:36.015Z,16.00
2023-03-06T13:21:58.006Z,15.27
2023-03-06T13:25:26.181Z,16.75
2023-03-06T13:28:25.818Z,13.95
2023-03-06T13:31:44.087Z,14.27
2023-03-06T13:34:57.302Z,16.17
2023-03-06T13:39:40.083Z,13.68
2023-03-06T13:49:38.260Z,14.68
2023-03-06T13:53:22.868Z,15.25
2023-03-06T13:56:43.875Z,13.10
2023-03-06T14:00:09.173Z,15.20
2023-03-06T14:13:48.002Z,13.50
2023-03-06T14:17:20.123Z,13.02
2023-03-06T14:20:57.391Z,14.45
2023-03-06T14:23:47.160Z,15.15
2023-03-06T14:26:45.208Z,16.08
2023-03-06T14:30:32.498Z,15.77
2023-03-06T14:33:15.592Z,12.90
2023-03-06T14:36:11.217Z,16.75
2023-03-06T14:39:24.504Z,14.68
2023-03-06T14:42:22.611Z,15.60
2023-03-06T15:54:14.036Z,18.27
2023-03-06T15:57:07.322Z,19.05
2023-03-06T16:00:07.565Z,22.35
2023-03-06T16:03:14.245Z,18.92
2023-03-06T16:06:08.873Z,20.10
2023-03-06T16:08:59.198Z,19.52
2023-03-06T16:12:40.047Z,20.10
2023-03-06T16:15:25.424Z,23.27
2023-03-06T16:18:15.376Z,25.83
2023-03-06T16:21:26.473Z,26.17
2023-03-06T16:24:46.234Z,20.30
2023-03-06T16:27:45.293Z,20.35
2023-03-06T16:33:50.723Z,24.02
2023-03-06T16:36:39.958Z,23.15
2023-03-06T16:39:38.653Z,29.25
2023-03-06T16:45:58.100Z,25.75
2023-03-06T16:48:45.853Z,26.58
2023-03-06T16:51:42.166Z,21.83
2023-03-06T16:54:29.411Z,21.23
2023-03-06T16:57:17.489Z,26.85
2023-03-06T17:00:09.103Z,30.70
2023-03-06T17:02:56.717Z,21.88
2023-03-06T17:05:44.913Z,25.77
2023-03-06T17:08:32.463Z,29.08
2023-03-06T17:11:25.216Z,23.85
2023-03-06T17:14:15.072Z,26.58
2023-03-06T17:17:03.631Z,28.33
2023-03-06T17:19:53.913Z,26.20
2023-03-06T17:22:41.728Z,24.00
2023-03-06T17:25:29.231Z,31.27
2023-03-06T17:28:16.711Z,25.50
2023-03-06T17:31:14.964Z,26.67
2023-03-06T17:34:05.302Z,24.90
2023-03-06T17:36:52.764Z,24.15
2023-03-06T17:39:40.759Z,24.85
2023-03-06T17:42:29.818Z,27.23
2023-03-06T17:45:24.700Z,26.10
2023-03-06T17:48:12.156Z,26.92
2023-03-06T17:51:06.407Z,25.10
2023-03-06T17:53:54.111Z,22.48
2023-03-06T17:56:42.218Z,25.70
2023-03-06T17:59:31.274Z,29.80
2023-03-06T18:02:21.748Z,25.25
2023-03-06T18:05:09.661Z,24.77
2023-03-06T18:07:57.372Z,30.05
2023-03-06T18:10:49.370Z,27.05
2023-03-06T18:13:39.554Z,27.65
2023-03-06T18:16:27.875Z,30.67
2023-03-06T18:19:16.692Z,44.22
2023-03-06T18:22:04.370Z,36.33
2023-03-06T18:24:52.175Z,33.30
2023-03-06T18:27:41.784Z,43.08
2023-03-06T18:30:29.321Z,36.03
2023-03-06T18:33:19.595Z,34.53
2023-03-06T18:36:07.531Z,28.08
2023-03-06T18:38:55.793Z,30.20
2023-03-06T18:41:43.312Z,31.23
2023-03-06T18:44:30.653Z,35.05
2023-03-06T18:47:18.204Z,29.13
2023-03-06T18:50:07.638Z,41.17
2023-03-06T18:52:55.141Z,34.95
2023-03-06T18:55:51.129Z,33.50
2023-03-06T18:58:43.132Z,35.67
2023-03-06T19:01:34.366Z,32.05
2023-03-06T19:04:22.701Z,30.92
2023-03-06T19:07:13.934Z,30.52
2023-03-06T19:10:02.906Z,28.13
2023-03-06T19:12:54.667Z,30.15
2023-03-06T19:15:47.572Z,30.53
2023-03-06T19:18:38.976Z,26.63
2023-03-06T19:21:30.497Z,28.05
2023-03-06T19:24:19.158Z,26.38
2023-03-06T19:27:08.958Z,24.10
2023-03-06T19:29:59.686Z,32.25
2023-03-06T19:32:47.357Z,29.48
2023-03-06T19:35:39.749Z,36.92
2023-03-06T19:38:27.192Z,32.13
2023-03-06T19:41:18.754Z,29.60
2023-03-06T19:44:06.192Z,31.63
2023-03-06T19:46:53.798Z,34.20
2023-03-06T19:49:42.030Z,27.70
2023-03-06T19:52:30.721Z,23.23
2023-03-06T19:55:18.215Z,27.55
2023-03-06T19:58:06.423Z,28.88
2023-03-06T20:01:07.922Z,28.30
2023-03-06T20:03:59.921Z,27.95
2023-03-06T20:06:52.573Z,29.80
2023-03-06T20:09:42.593Z,28.63
2023-03-06T20:12:31.578Z,30.60
2023-03-06T20:15:23.304Z,29.08
2023-03-06T20:18:10.726Z,28.70
2023-03-06T20:20:59.718Z,27.83
2023-03-06T20:23:47.577Z,33.00
2023-03-06T20:26:36.961Z,27.15
2023-03-06T20:29:28.031Z,28.42
2023-03-06T20:32:21.686Z,30.95
2023-03-06T20:35:13.803Z,28.05
2023-03-06T20:38:01.730Z,33.78
2023-03-06T20:40:49.483Z,30.27
2023-03-06T20:43:36.912Z,34.15
2023-03-06T20:46:24.634Z,29.52
2023-03-06T20:49:13.371Z,33.05
2023-03-06T20:52:07.757Z,33.45
2023-03-06T20:54:54.973Z,32.85
2023-03-06T20:57:42.405Z,27.65
2023-03-06T21:00:30.059Z,33.45
2023-03-06T21:03:17.772Z,31.02
2023-03-06T21:06:05.509Z,35.55
2023-03-06T21:08:52.791Z,33.95
2023-03-06T21:11:43.426Z,29.92
2023-03-06T21:14:32.305Z,27.77
2023-03-06T21:17:19.539Z,32.45
2023-03-06T21:20:11.741Z,35.20
2023-03-06T21:22:59.103Z,33.58
2023-03-06T21:25:52.966Z,32.15
2023-03-06T21:31:42.801Z,28.35
2023-03-06T21:34:30.266Z,32.95
2023-03-06T21:37:17.644Z,30.25
2023-03-06T21:40:07.025Z,32.58
2023-03-06T21:42:54.310Z,33.83
2023-03-06T21:45:49.374Z,28.67
2023-03-06T21:48:39.542Z,26.35
2023-03-06T21:51:27.368Z,34.83
2023-03-06T21:54:19.364Z,32.47
2023-03-06T21:57:06.696Z,29.25
2023-03-06T21:59:56.351Z,29.17
2023-03-06T22:02:44.515Z,27.58
2023-03-06T22:05:34.787Z,29.63
2023-03-06T22:08:28.193Z,28.45
2023-03-06T22:11:17.746Z,26.23
2023-03-06T22:14:06.071Z,32.78
2023-03-06T22:16:53.339Z,34.85
2023-03-06T22:19:40.789Z,29.40
2023-03-06T22:22:28.024Z,29.40
2023-03-06T22:25:16.305Z,36.40
2023-03-06T22:28:04.840Z,32.45
2023-03-06T22:30:52.030Z,33.00
2023-03-06T22:33:39.274Z,28.98
2023-03-06T22:36:33.010Z,34.13
2023-03-06T22:39:21.621Z,31.77
2023-03-06T22:42:08.807Z,28.58
2023-03-06T22:44:55.981Z,28.02
2023-03-06T22:47:47.007Z,30.95
2023-03-06T22:50:34.477Z,27.27
2023-03-06T22:53:21.994Z,30.55
2023-03-06T22:56:11.956Z,27.75
2023-03-06T22:58:59.679Z,30.90
2023-03-06T23:01:49.357Z,25.17
2023-03-06T23:04:38.763Z,31.17
2023-03-06T23:07:26.156Z,28.23
2023-03-06T23:10:14.329Z,31.85
2023-03-06T23:13:03.735Z,32.08
2023-03-06T23:15:53.270Z,29.25
2023-03-06T23:18:41.013Z,30.95
2023-03-06T23:21:28.334Z,31.13
2023-03-06T23:24:18.582Z,28.45
2023-03-06T23:27:08.398Z,28.92
2023-03-06T23:30:01.876Z,26.65
2023-03-06T23:32:54.236Z,28.23
2023-03-06T23:35:41.567Z,26.95
2023-03-06T23:38:29.820Z,27.00
2023-03-06T23:41:22.750Z,29.98
2023-03-06T23:44:10.036Z,29.00
2023-03-06T23:46:57.181Z,27.10
2023-03-06T23:49:44.431Z,27.55
2023-03-06T23:52:36.494Z,26.20
2023-03-06T23:55:23.779Z,29.00
2023-03-06T23:58:11.631Z,30.33
